Date,TemperatureHighF,TemperatureAvgF,TemperatureLowF,DewpointHighF,DewpointAvgF,DewpointLowF,HumidityHigh,HumidityAvg,HumidityLow,PressureMaxIn,PressureMinIn,WindSpeedMaxMPH,WindSpeedAvgMPH,GustSpeedMaxMPH,PrecipitationSumIn
2013-1-1,49.0,44.0,43.0,16.0,15.8,15.0,33,32,26,0.00,40.00,0,-999,0,0.00
2013-1-2,55.0,41.9,15.0,20.0,17.7,12.0,90,45,25,0.00,40.00,0,-999,0,0.00
2013-1-3,49.0,44.8,44.0,30.0,29.2,29.0,54,53,47,0.00,40.00,0,-999,0,0.00
2013-1-4,50.0,48.3,48.0,22.0,21.2,21.0,34,34,32,0.00,40.00,0,-999,0,0.00
2013-1-5,59.0,57.3,57.0,13.0,9.7,9.0,15,14,14,0.00,40.00,0,-999,0,0.00
2013-1-6,58.0,56.3,56.0,19.0,18.8,18.0,23,23,21,0.00,40.00,0,-999,0,0.00
2013-1-7,60.0,56.7,56.0,13.0,12.7,11.0,17,16,14,0.00,40.00,0,-999,0,0.00
2013-1-8,58.0,56.3,56.0,18.0,17.2,17.0,21,21,20,0.00,40.00,0,-999,0,0.00
2013-1-9,64.0,60.7,60.0,9.0,8.2,8.0,12,12,11,0.00,40.00,0,-999,0,0.00
2013-1-10,63.0,60.7,60.0,18.0,15.9,14.0,19,17,15,0.00,40.00,0,-999,0,0.00
2013-1-11,44.0,40.7,40.0,11.0,10.2,10.0,28,28,25,0.00,40.00,0,-999,0,0.00
2013-1-12,39.0,38.2,38.0,1.0,0.7,-1.0,20,20,17,0.00,40.00,0,-999,0,0.00
2013-1-13,44.0,40.7,40.0,2.0,1.7,0.0,19,18,15,0.00,40.00,0,-999,0,0.00
2013-1-14,42.0,39.5,39.0,1.0,0.7,-1.0,19,18,15,0.00,40.00,0,-999,0,0.00
2013-1-15,40.0,39.2,39.0,-4.0,-4.2,-5.0,15,15,14,0.00,40.00,0,-999,0,0.00
2013-1-16,57.0,55.3,55.0,4.0,3.2,3.0,12,12,11,0.00,40.00,0,-999,0,0.00
2013-1-17,64.0,61.5,61.0,11.0,10.2,10.0,13,13,12,0.00,40.00,0,-999,0,0.00
2013-1-18,69.0,64.0,63.0,10.0,10.0,10.0,11,11,10,0.00,40.00,0,-999,0,0.00
2013-1-19,72.0,70.3,70.0,21.0,21.0,21.0,15,15,14,0.00,40.00,0,-999,0,0.00
2013-1-20,74.0,69.0,68.0,25.0,25.0,25.0,19,18,16,0.00,40.00,0,-999,0,0.00
2013-1-21,75.0,73.3,73.0,25.0,25.0,25.0,16,16,15,0.00,40.00,0,-999,0,0.00
2013-1-22,75.0,73.3,73.0,20.0,19.2,19.0,13,13,12,0.00,40.00,0,-999,0,0.00
2013-1-23,74.0,72.3,72.0,24.0,23.2,23.0,15,15,15,0.00,40.00,0,-999,0,0.00
2013-1-24,62.0,61.2,61.0,38.0,37.7,36.0,42,41,38,0.00,40.00,0,-999,0,0.00
2013-1-25,71.0,70.0,69.0,39.0,38.5,38.0,32,31,30,0.00,40.00,0,-999,0,0.00
2013-1-26,58.0,58.0,58.0,47.0,46.2,46.0,65,64,64,0.00,40.00,0,-999,0,0.00
2013-1-27,62.0,60.3,60.0,38.0,38.0,38.0,44,43,40,0.00,40.00,0,-999,0,0.00
2013-1-28,54.0,47.3,46.0,37.0,36.2,32.0,70,66,44,0.00,40.00,0,-999,0,0.00
2013-1-29,46.0,45.2,45.0,15.0,15.0,15.0,30,30,28,0.00,40.00,0,-999,0,0.00
2013-1-30,52.0,42.3,18.0,15.0,10.1,8.0,89,37,16,0.00,40.00,0,-999,0,0.00
2013-1-31,58.0,57.2,57.0,21.0,21.0,21.0,24,24,23,0.00,40.00,0,-999,0,0.00
2013-2-1,70.0,67.5,67.0,16.0,15.2,15.0,12,12,12,0.00,40.00,0,-999,0,0.00
2013-2-2,73.0,71.3,71.0,11.0,10.2,10.0,9,9,8,0.00,40.00,0,-999,0,0.00
2013-2-3,60.0,60.0,60.0,36.0,34.3,34.0,40,37,36,0.00,40.00,0,-999,0,0.00
2013-2-4,66.0,66.0,66.0,32.0,31.2,31.0,27,26,26,0.00,40.00,0,-999,0,0.00
2013-2-5,70.0,69.2,69.0,29.0,28.2,28.0,22,21,21,0.00,40.00,0,-999,0,0.00
2013-2-6,66.0,65.8,65.0,30.0,29.2,29.0,26,25,25,0.00,40.00,0,-999,0,0.00
2013-2-7,68.0,66.3,66.0,21.0,20.8,20.0,17,17,16,0.00,40.00,0,-999,0,0.00
2013-2-8,64.0,61.9,61.0,19.0,9.4,3.0,19,13,8,0.00,40.00,0,-999,0,0.00
2013-2-9,50.0,48.3,48.0,19.0,14.8,14.0,29,25,24,0.00,40.00,0,-999,0,0.00
2013-2-10,57.0,55.3,55.0,2.0,-1.3,-2.0,10,9,9,0.00,40.00,0,-999,0,0.00
2013-2-11,46.0,42.7,42.0,31.0,29.5,22.0,63,59,37,0.00,40.00,0,-999,0,0.00
2013-2-12,49.0,47.6,47.0,20.0,18.7,17.0,33,31,30,0.00,40.00,0,-999,0,0.00
2013-2-13,58.0,58.0,58.0,9.0,8.8,8.0,13,13,13,0.00,40.00,0,-999,0,0.00
2013-2-14,62.0,60.3,60.0,13.0,13.0,13.0,15,15,14,0.00,40.00,0,-999,0,0.00
2013-2-15,67.0,66.2,66.0,4.0,3.7,2.0,8,8,7,0.00,40.00,0,-999,0,0.00
2013-2-16,69.0,69.0,69.0,6.0,6.0,6.0,8,8,8,0.00,40.00,0,-999,0,0.00
2013-2-17,70.0,67.5,67.0,4.0,4.0,4.0,8,8,7,0.00,40.00,0,-999,0,0.00
2013-2-18,66.0,66.0,66.0,6.0,5.2,5.0,9,8,8,0.00,40.00,0,-999,0,0.00
2013-2-19,61.0,59.3,59.0,34.0,34.0,34.0,38,38,35,0.00,40.00,0,-999,0,0.00
2013-2-20,48.0,38.3,31.0,30.0,24.3,16.0,93,66,27,0.00,40.00,0,-999,0,0.00
2013-2-21,47.0,46.2,46.0,25.0,24.8,24.0,44,43,40,0.00,40.00,0,-999,0,0.00
2013-2-22,50.0,50.0,50.0,28.0,26.3,26.0,43,40,39,0.00,40.00,0,-999,0,0.00
2013-2-23,64.0,63.2,63.0,19.0,17.3,17.0,17,16,16,0.00,40.00,0,-999,0,0.00
2013-2-24,44.0,42.3,42.0,-1.0,-1.0,-1.0,16,16,14,0.00,40.00,0,-999,0,0.00
2013-2-25,57.0,55.3,55.0,5.0,4.2,4.0,12,12,12,0.00,40.00,0,-999,0,0.00
2013-2-26,61.0,59.6,59.0,7.0,6.6,5.0,12,11,10,0.00,40.00,0,-999,0,0.00
2013-2-27,61.0,58.5,58.0,3.0,1.3,1.0,9,9,9,0.00,40.00,0,-999,0,0.00
2013-2-28,65.0,62.5,62.0,0.0,-2.5,-3.0,7,7,7,0.00,40.00,0,-999,0,0.00
2013-3-1,72.0,71.2,71.0,12.0,12.0,12.0,10,10,9,0.00,40.00,0,-999,0,0.00
2013-3-2,80.0,80.0,80.0,6.0,6.0,6.0,5,5,5,0.00,40.00,0,-999,0,0.00
2013-3-4,70.0,63.2,58.0,22.0,14.3,6.0,16,14,12,0.00,40.00,0,-999,0,0.00
2013-3-5,73.0,72.2,72.0,16.0,15.7,14.0,11,11,10,0.00,40.00,0,-999,0,0.00
2013-3-6,80.0,78.3,78.0,21.0,17.7,17.0,11,10,10,0.00,40.00,0,-999,0,0.00
2013-3-7,73.0,71.3,71.0,17.0,16.2,16.0,12,12,12,0.00,40.00,0,-999,0,0.00
2013-3-8,54.0,52.3,52.0,38.0,38.0,38.0,59,58,54,0.00,40.00,0,-999,0,0.00
2013-3-9,48.0,48.0,48.0,31.0,29.3,29.0,52,48,47,0.00,40.00,0,-999,0,0.00
2013-3-10,61.0,59.3,59.0,24.0,24.0,24.0,25,25,24,0.00,40.00,0,-999,0,0.00
2013-3-11,71.0,71.0,71.0,10.0,9.8,9.0,9,9,8,0.00,40.00,0,-999,0,0.00
2013-3-12,79.0,78.2,78.0,14.0,11.5,11.0,8,7,7,0.00,40.00,0,-999,0,0.00
2013-3-13,83.0,83.0,83.0,11.0,11.0,11.0,6,6,6,0.00,40.00,0,-999,0,0.00
2013-3-14,87.0,86.2,86.0,8.0,7.2,7.0,4,4,4,0.00,40.00,0,-999,0,0.00
2013-3-15,89.0,87.3,87.0,8.0,7.2,7.0,4,4,4,0.00,40.00,0,-999,0,0.00
2013-3-16,83.0,81.3,81.0,8.0,3.8,3.0,5,4,4,0.00,40.00,0,-999,0,0.00
2013-3-17,78.0,76.3,76.0,15.0,15.0,15.0,9,9,9,0.00,40.00,0,-999,0,0.00
2013-3-18,80.0,78.3,78.0,14.0,14.0,14.0,8,8,8,0.00,40.00,0,-999,0,0.00
2013-3-19,76.0,74.3,74.0,21.0,21.0,21.0,13,13,12,0.00,40.00,0,-999,0,0.00
2013-3-20,77.0,76.8,76.0,22.0,22.0,22.0,13,12,12,0.00,40.00,0,-999,0,0.00
2013-3-21,74.0,73.2,73.0,16.0,15.7,14.0,11,11,10,0.00,40.00,0,-999,0,0.00
2013-3-22,75.0,74.2,74.0,18.0,16.3,16.0,11,11,11,0.00,40.00,0,-999,0,0.00
2013-3-23,70.0,68.3,68.0,15.0,12.5,12.0,11,11,11,0.00,40.00,0,-999,0,0.00
2013-3-24,72.0,71.2,71.0,7.0,6.8,6.0,8,8,7,0.00,40.00,0,-999,0,0.00
2013-3-25,75.0,74.2,74.0,10.0,9.2,9.0,8,8,8,0.00,40.00,0,-999,0,0.00
2013-3-26,82.0,79.5,79.0,10.0,10.0,10.0,7,7,6,0.00,40.00,0,-999,0,0.00
2013-3-27,79.0,77.3,77.0,18.0,18.0,18.0,10,10,10,0.00,40.00,0,-999,0,0.00
2013-3-28,81.0,77.7,77.0,16.0,16.0,16.0,9,9,8,0.00,40.00,0,-999,0,0.00
2013-3-29,84.0,82.3,82.0,20.0,19.5,17.0,10,10,8,0.00,40.00,0,-999,0,0.00
2013-3-30,77.0,77.0,77.0,19.0,18.5,16.0,11,11,10,0.00,40.00,0,-999,0,0.00
2013-3-31,82.0,80.3,80.0,21.0,20.2,20.0,10,10,10,0.00,40.00,0,-999,0,0.00
2013-4-1,82.0,81.2,81.0,17.0,16.4,14.0,9,9,7,0.00,40.00,0,-999,0,0.00
2013-4-2,74.0,73.2,73.0,11.0,10.6,9.0,9,9,8,0.00,40.00,0,-999,0,0.00
2013-4-3,77.0,76.8,76.0,17.0,17.0,17.0,10,10,10,0.00,40.00,0,-999,0,0.00
2013-4-4,83.0,81.3,81.0,12.0,11.2,11.0,7,7,6,0.00,40.00,0,-999,0,0.00
2013-4-5,84.0,83.2,83.0,17.0,17.0,17.0,8,8,8,0.00,40.00,0,-999,0,0.00
2013-4-6,83.0,81.3,81.0,23.0,22.8,22.0,11,11,10,0.00,40.00,0,-999,0,0.00
2013-4-7,82.0,81.2,81.0,20.0,19.8,19.0,10,10,9,0.00,40.00,0,-999,0,0.00
2013-4-8,76.0,70.0,65.0,32.0,26.5,21.0,29,20,14,0.00,40.00,0,-999,0,0.00
2013-4-9,60.0,60.0,60.0,13.0,-71.7,-99.9,15,15,15,0.00,40.00,0,-999,0,0.00
2013-4-10,64.0,63.2,63.0,19.0,18.2,18.0,17,17,17,0.00,40.00,0,-999,0,0.00
2013-4-11,75.0,75.0,75.0,16.0,14.3,14.0,10,9,9,0.00,40.00,0,-999,0,0.00
2013-4-12,75.0,75.0,75.0,16.0,16.0,16.0,10,10,10,0.00,40.00,0,-999,0,0.00
2013-4-13,82.0,80.3,80.0,18.0,16.3,16.0,9,9,9,0.00,40.00,0,-999,0,0.00
2013-4-14,79.0,78.2,78.0,25.0,24.7,23.0,13,13,12,0.00,40.00,0,-999,0,0.00
2013-4-15,80.0,79.2,79.0,22.0,21.8,21.0,12,12,11,0.00,40.00,0,-999,0,0.00
2013-4-16,79.0,77.5,77.0,18.0,17.5,16.0,11,10,9,0.00,40.00,0,-999,0,0.00
2013-4-17,65.0,64.2,64.0,14.0,12.3,12.0,13,13,13,0.00,40.00,0,-999,0,0.00
2013-4-18,66.0,65.2,65.0,2.0,-2.2,-3.0,7,6,6,0.00,40.00,0,-999,0,0.00
2013-4-19,77.0,76.8,76.0,-3.0,-3.8,-4.0,4,3,3,0.00,40.00,0,-999,0,0.00
2013-4-20,81.0,79.3,79.0,6.0,6.0,6.0,5,5,5,0.00,40.00,0,-999,0,0.00
2013-4-21,86.0,86.0,86.0,11.0,9.3,9.0,5,5,5,0.00,40.00,0,-999,0,0.00
2013-4-22,88.0,86.3,86.0,10.0,9.8,9.0,5,5,5,0.00,40.00,0,-999,0,0.00
2013-4-23,84.0,84.0,84.0,15.0,14.2,14.0,7,7,7,0.00,40.00,0,-999,0,0.00
2013-4-24,87.0,84.5,84.0,16.0,13.5,13.0,7,6,6,0.00,40.00,0,-999,0,0.00
2013-4-25,80.0,78.2,76.0,20.0,16.3,13.0,12,10,8,0.00,40.00,0,-999,0,0.00
2013-4-26,84.0,82.3,82.0,7.0,4.5,4.0,5,4,4,0.00,40.00,0,-999,0,0.00
2013-4-27,85.0,85.0,85.0,11.0,10.8,10.0,6,6,5,0.00,40.00,0,-999,0,0.00
2013-4-28,89.0,87.3,87.0,7.0,7.0,7.0,4,4,4,0.00,40.00,0,-999,0,0.00
2013-4-29,90.0,89.2,89.0,10.0,10.0,10.0,4,4,4,0.00,40.00,0,-999,0,0.00
2013-4-30,88.0,88.0,88.0,14.0,14.0,14.0,6,6,6,0.00,40.00,0,-999,0,0.00
2013-5-1,88.0,87.2,87.0,15.0,14.2,14.0,6,6,6,0.00,40.00,0,-999,0,0.00
2013-5-2,84.0,83.2,83.0,19.0,18.8,18.0,9,9,8,0.00,40.00,0,-999,0,0.00
2013-5-3,82.0,81.8,81.0,12.0,11.8,11.0,7,7,7,0.00,40.00,0,-999,0,0.00
2013-5-4,86.0,83.5,83.0,22.0,21.7,20.0,10,10,9,0.00,40.00,0,-999,0,0.00
2013-5-6,80.0,75.2,68.0,37.0,31.0,27.0,32,21,14,0.00,40.00,0,-999,0,0.00
2013-5-7,78.0,77.8,77.0,23.0,22.7,21.0,13,13,12,0.00,40.00,0,-999,0,0.00
2013-5-8,80.0,78.3,78.0,22.0,21.7,20.0,12,12,10,0.00,40.00,0,-999,0,0.00
2013-5-9,81.0,77.7,77.0,19.0,19.0,19.0,11,11,10,0.00,40.00,0,-999,0,0.00
2013-5-10,73.0,72.2,72.0,29.0,28.3,25.0,20,19,16,0.00,40.00,0,-999,0,0.00
2013-5-11,79.0,79.0,79.0,29.0,28.3,28.0,15,15,15,0.00,40.00,0,-999,0,0.00
2013-5-12,84.0,82.3,82.0,23.0,22.8,22.0,11,11,10,0.00,40.00,0,-999,0,0.00
2013-5-13,87.0,86.2,86.0,17.0,14.5,14.0,7,6,6,0.00,40.00,0,-999,0,0.00
2013-5-14,90.0,89.2,89.0,23.0,23.0,23.0,9,9,8,0.00,40.00,0,-999,0,0.00
2013-5-15,91.0,90.6,90.0,28.0,28.0,28.0,10,10,10,0.00,40.00,0,-999,0,0.00
2013-5-16,92.0,81.6,64.0,17.0,15.6,15.0,15,9,6,0.00,40.00,0,-999,0,0.00
2013-5-17,88.0,79.0,61.0,23.0,21.7,16.0,23,13,6,0.00,40.00,0,-999,0,0.00
2013-5-18,86.0,85.2,85.0,20.0,20.0,20.0,9,9,9,0.00,40.00,0,-999,0,0.00
2013-5-20,89.0,85.0,81.0,29.0,23.8,21.0,15,11,9,0.00,40.00,0,-999,0,0.00
2013-5-21,92.0,83.6,54.0,15.0,12.0,9.0,16,7,5,0.00,40.00,0,-999,0,0.00
2013-5-22,94.0,76.5,45.0,21.0,16.6,9.0,28,12,5,0.00,40.00,0,-999,0,0.00
2013-5-23,94.0,77.2,41.0,27.0,17.1,12.0,36,13,4,0.00,40.00,0,-999,0,0.00
2013-5-24,95.0,77.4,43.0,37.0,16.0,-99.9,44,14,4,0.00,40.00,0,-999,0,0.00
2013-5-25,93.0,76.2,41.0,29.0,18.2,8.0,34,13,5,0.00,40.00,0,-999,0,0.00
2013-5-26,93.0,76.9,39.0,28.0,15.4,10.0,39,12,4,0.00,40.00,0,-999,0,0.00
2013-5-27,83.0,61.6,40.0,25.0,15.6,6.0,34,19,5,0.00,40.00,0,-999,0,0.00
2013-5-30,94.0,79.3,51.0,50.0,33.3,26.0,64,23,9,0.00,40.00,0,-999,0,0.00
2013-5-31,96.0,79.4,54.0,52.0,37.6,31.0,62,26,10,0.00,40.00,0,-999,0,0.00
2013-6-1,101.0,82.1,46.0,39.0,29.2,22.0,55,20,6,0.00,40.00,0,-999,0,0.00
2013-6-2,102.0,85.2,52.0,40.0,29.8,25.0,42,16,7,0.00,40.00,0,-999,0,0.00
2013-6-3,98.0,82.7,47.0,41.0,25.7,20.0,51,15,6,0.00,40.00,0,-999,0,0.00
2013-6-4,98.0,81.6,50.0,42.0,30.6,25.0,48,18,8,0.00,40.00,0,-999,0,0.00
2013-6-5,98.0,78.0,48.0,35.0,21.8,14.0,47,16,4,0.00,40.00,0,-999,0,0.00
2013-6-6,99.0,73.7,43.0,26.0,19.9,13.0,35,16,4,0.00,40.00,0,-999,0,0.00
2013-6-7,103.0,77.0,49.0,32.0,25.4,21.0,38,18,5,0.00,40.00,0,-999,0,0.00
2013-6-8,100.0,81.5,56.0,36.0,24.8,21.0,30,14,6,0.00,40.00,0,-999,0,0.00
2013-6-9,100.0,79.8,59.0,39.0,27.5,20.0,44,18,6,0.00,40.00,0,-999,0,0.00
2013-6-10,102.0,75.7,48.0,37.0,25.3,20.0,38,19,6,0.00,40.00,0,-999,0,0.00
2013-6-11,104.0,81.0,50.0,41.0,24.8,20.0,45,16,6,0.00,40.00,0,-999,0,0.00
2013-6-12,104.0,88.1,54.0,43.0,23.0,-99.9,38,14,7,0.00,40.00,0,-999,0,0.00
2013-6-13,99.0,87.6,66.0,53.0,38.5,28.0,54,20,10,0.00,40.00,0,-999,0,0.00
2013-6-14,97.0,80.8,65.0,54.0,46.2,-99.9,76,34,15,0.00,40.00,0,-999,0,0.30
2013-6-15,92.0,74.8,63.0,63.0,54.0,48.0,83,51,23,0.00,40.00,0,-999,0,0.01
2013-6-16,96.0,84.1,56.0,58.0,49.5,34.0,92,37,12,0.00,40.00,0,-999,0,0.00
2013-6-17,99.0,89.1,59.0,41.0,28.7,20.0,44,13,7,0.00,40.00,0,-999,0,0.00
2013-6-18,101.0,91.3,66.0,34.0,10.6,-99.9,21,7,3,0.00,40.00,0,-999,0,0.00
2013-6-19,101.0,86.9,49.0,36.0,25.3,16.0,41,13,6,0.00,40.00,0,-999,0,0.00
2013-6-20,101.0,75.2,44.0,34.0,14.6,-99.9,43,18,3,0.00,40.00,0,-999,0,0.00
2013-6-24,97.0,88.6,71.0,40.0,32.0,26.0,24,13,10,0.00,40.00,0,-999,0,0.00
2013-6-25,98.0,89.1,62.0,45.0,27.0,21.0,46,12,7,0.00,40.00,0,-999,0,0.00
2013-6-26,98.0,90.7,63.0,39.0,26.9,21.0,41,11,8,0.00,40.00,0,-999,0,0.00
2013-6-27,102.0,92.0,65.0,47.0,34.1,29.0,43,15,8,0.00,40.00,0,-999,0,0.00
2013-6-28,106.0,95.4,77.0,42.0,31.2,28.0,29,11,7,0.00,40.00,0,-999,0,0.00
2013-6-29,102.0,93.5,77.0,48.0,6.3,-99.9,46,17,8,0.00,40.00,0,-999,0,0.00
2013-6-30,101.0,89.0,70.0,62.0,45.2,38.0,75,28,11,0.00,40.00,0,-999,0,0.09
2013-7-1,100.0,82.6,67.0,63.0,53.1,39.0,77,43,14,0.00,40.00,0,-999,0,0.00
2013-7-2,95.0,81.1,63.0,62.0,53.0,45.0,89,44,18,0.00,40.00,0,-999,0,0.06
2013-7-3,97.0,82.0,61.0,58.0,48.3,-99.9,78,37,16,0.00,40.00,0,-999,0,0.00
2013-7-4,100.0,85.0,69.0,59.0,50.5,41.0,70,35,15,0.00,40.00,0,-999,0,0.00
2013-7-5,97.0,76.5,67.0,63.0,57.7,51.0,79,54,22,0.00,40.00,0,-999,0,0.00
2013-7-6,101.0,77.5,61.0,62.0,55.8,47.0,88,53,16,0.00,40.00,0,-999,0,0.00
2013-7-7,102.0,78.8,63.0,66.0,56.4,43.0,83,53,13,0.00,40.00,0,-999,0,0.04
2013-7-8,99.0,81.3,67.0,67.0,59.2,49.0,90,52,18,0.00,40.00,0,-999,0,0.00
2013-7-9,95.0,78.8,68.0,67.0,62.0,54.0,91,61,26,0.00,40.00,0,-999,0,0.04
2013-7-11,87.0,75.9,69.0,67.0,64.3,60.0,93,71,43,0.00,40.00,0,-999,0,0.00
2013-7-12,91.0,76.9,64.0,68.0,61.1,52.0,94,64,27,0.00,40.00,0,-999,0,0.05
2013-7-13,95.0,77.8,67.0,63.0,59.8,53.0,85,59,24,0.00,40.00,0,-999,0,0.03
2013-7-14,95.0,79.1,65.0,66.0,59.8,51.0,91,57,22,0.00,40.00,0,-999,0,0.00
2013-7-15,94.0,79.1,65.0,70.0,61.2,56.0,88,59,28,0.00,40.00,0,-999,0,0.25
2013-7-16,83.0,69.5,66.0,66.0,64.5,61.0,93,85,47,0.00,40.00,0,-999,0,0.16
2013-7-17,88.0,76.4,64.0,66.0,57.9,51.0,94,59,28,0.00,40.00,0,-999,0,0.00
2013-7-18,83.0,75.1,62.0,60.0,57.0,54.0,85,54,38,0.00,40.00,0,-999,0,0.00
2013-7-19,76.0,71.0,66.0,68.0,62.7,58.0,89,74,57,0.00,40.00,0,-999,0,0.10
2013-7-20,81.0,72.5,64.0,69.0,63.9,62.0,93,75,56,0.00,40.00,0,-999,0,0.00
2013-7-21,89.0,76.4,66.0,65.0,61.4,56.0,88,63,32,0.00,40.00,0,-999,0,0.00
2013-7-22,88.0,74.7,64.0,67.0,61.1,56.0,82,65,34,0.00,40.00,0,-999,0,0.00
2013-7-23,90.0,75.8,64.0,65.0,61.2,54.0,91,64,30,0.00,40.00,0,-999,0,0.38
2013-7-24,86.0,74.1,66.0,68.0,64.9,61.0,92,75,44,0.00,40.00,0,-999,0,0.03
2013-7-25,84.0,72.6,66.0,67.0,64.7,58.0,92,77,54,0.00,40.00,0,-999,0,0.00
2013-7-26,89.0,72.0,63.0,68.0,64.6,60.0,93,80,37,0.00,40.00,0,-999,0,0.09
2013-7-27,87.0,72.9,64.0,69.0,64.0,59.0,94,76,39,0.00,40.00,0,-999,0,0.03
2013-7-28,95.0,79.1,64.0,66.0,56.4,45.0,93,54,21,0.00,40.00,0,-999,0,0.00
2013-7-29,95.0,82.6,61.0,63.0,51.8,47.0,89,38,21,0.00,40.00,0,-999,0,0.00
2013-7-30,93.0,78.3,61.0,62.0,53.6,48.0,84,47,21,0.00,40.00,0,-999,0,0.00
2013-7-31,92.0,83.2,70.0,65.0,56.8,51.0,75,43,26,0.00,40.00,0,-999,0,0.00
2013-8-1,78.0,70.3,65.0,66.0,63.1,59.0,91,77,59,0.00,40.00,0,-999,0,0.05
2013-8-2,90.0,73.3,62.0,65.0,61.8,59.0,93,70,36,0.00,40.00,0,-999,0,0.00
2013-8-3,95.0,78.5,57.0,63.0,55.4,48.0,91,50,20,0.00,40.00,0,-999,0,0.00
2013-8-4,91.0,79.7,69.0,64.0,57.7,50.0,69,49,27,0.00,40.00,0,-999,0,0.00
2013-8-5,84.0,72.1,64.0,66.0,61.4,57.0,92,71,39,0.00,40.00,0,-999,0,0.39
2013-8-6,81.0,69.4,60.0,64.0,61.0,58.0,94,76,45,0.00,40.00,0,-999,0,0.00
2013-8-7,88.0,72.1,56.0,63.0,54.6,46.0,94,60,25,0.00,40.00,0,-999,0,0.00
2013-8-8,93.0,76.6,55.0,59.0,46.3,-99.9,91,46,13,0.00,40.00,0,-999,0,0.00
2013-8-9,95.0,78.2,55.0,57.0,48.3,42.0,88,42,16,0.00,40.00,0,-999,0,0.00
2013-8-10,95.0,77.1,60.0,58.0,48.9,38.0,75,41,16,0.00,40.00,0,-999,0,0.00
2013-8-11,91.0,76.4,60.0,61.0,58.4,55.0,83,56,29,0.00,40.00,0,-999,0,0.00
2013-8-12,94.0,75.4,59.0,69.0,54.8,-99.9,88,63,24,0.00,40.00,0,-999,0,0.03
2013-8-13,95.0,80.1,57.0,65.0,55.0,49.0,92,50,24,0.00,40.00,0,-999,0,0.00
2013-8-14,96.0,76.5,64.0,64.0,59.2,51.0,88,59,23,0.00,40.00,0,-999,0,0.00
2013-8-15,95.0,78.9,65.0,63.0,57.1,50.0,83,53,22,0.00,40.00,0,-999,0,0.00
2013-8-16,96.0,83.8,60.0,68.0,55.3,43.0,95,45,16,0.00,40.00,0,-999,0,0.00
2013-8-17,99.0,82.3,62.0,64.0,53.4,42.0,88,46,14,0.00,40.00,0,-999,0,0.00
2013-8-18,100.0,82.9,63.0,59.0,51.6,44.0,74,37,15,0.00,40.00,0,-999,0,0.00
2013-8-19,97.0,79.1,62.0,62.0,52.5,43.0,80,46,17,0.00,40.00,0,-999,0,0.00
2013-8-20,94.0,77.7,66.0,64.0,56.8,51.0,84,51,25,0.00,40.00,0,-999,0,0.01
2013-8-21,89.0,75.3,64.0,65.0,58.9,54.0,90,61,31,0.00,40.00,0,-999,0,0.00
2013-8-22,91.0,75.6,61.0,64.0,57.8,48.0,93,60,28,0.00,40.00,0,-999,0,0.01
2013-8-23,93.0,79.6,56.0,63.0,52.5,42.0,91,46,17,0.00,40.00,0,-999,0,0.25
2013-8-24,81.0,70.7,62.0,65.0,62.8,60.0,93,77,55,0.00,40.00,0,-999,0,0.37
2013-8-25,88.0,73.7,66.0,65.0,63.0,60.0,92,71,38,0.00,40.00,0,-999,0,0.00
2013-8-26,93.0,77.8,66.0,66.0,59.3,49.0,92,59,24,0.00,40.00,0,-999,0,0.00
2013-8-27,90.0,72.3,58.0,64.0,58.2,52.0,93,67,27,0.00,40.00,0,-999,0,0.00
2013-8-28,88.0,81.4,74.0,62.0,57.4,54.0,65,45,31,0.00,40.00,0,-999,0,0.00
2013-8-29,81.0,71.7,68.0,68.0,64.7,62.0,93,79,56,0.00,40.00,0,-999,0,0.30
2013-8-30,84.0,72.0,64.0,67.0,63.8,60.0,94,77,46,0.00,40.00,0,-999,0,0.00
2013-8-31,92.0,74.9,60.0,65.0,58.9,55.0,94,63,30,0.00,40.00,0,-999,0,0.00
2013-9-1,94.0,80.4,62.0,63.0,55.5,48.0,91,50,22,0.00,40.00,0,-999,0,0.00
2013-9-2,95.0,79.0,64.0,60.0,56.0,49.0,78,49,22,0.00,40.00,0,-999,0,0.00
2013-9-3,91.0,76.4,60.0,65.0,57.0,47.0,90,57,21,0.00,40.00,0,-999,0,0.06
2013-9-4,94.0,76.6,56.0,65.0,46.2,-99.9,94,56,15,0.00,40.00,0,-999,0,0.01
2013-9-5,94.0,83.1,59.0,59.0,45.5,-99.9,84,34,18,0.00,40.00,0,-999,0,0.00
2013-9-6,94.0,81.6,62.0,58.0,51.9,46.0,77,39,19,0.00,40.00,0,-999,0,0.00
2013-9-7,77.0,70.1,65.0,64.0,60.5,57.0,88,72,56,0.00,40.00,0,-999,0,0.04
2013-9-8,83.0,68.7,64.0,65.0,62.9,60.0,93,83,45,0.00,40.00,0,-999,0,0.25
2013-9-9,76.0,67.5,65.0,66.0,63.5,62.0,94,88,62,0.00,40.00,0,-999,0,0.15
2013-9-10,83.0,70.1,60.0,63.0,59.4,56.0,94,72,40,0.00,40.00,0,-999,0,0.00
2013-9-11,85.0,70.0,55.0,60.0,53.7,46.0,94,63,26,0.00,40.00,0,-999,0,0.00
2013-9-12,90.0,72.5,57.0,64.0,57.3,54.0,92,64,32,0.00,40.00,0,-999,0,0.26
2013-9-13,88.0,73.4,59.0,67.0,58.8,48.0,94,66,24,0.00,40.00,0,-999,0,0.00
2013-9-14,91.0,74.2,58.0,63.0,58.0,51.0,93,62,26,0.00,40.00,0,-999,0,0.00
2013-9-15,91.0,78.3,62.0,60.0,55.8,50.0,87,49,26,0.00,40.00,0,-999,0,0.00
2013-9-16,91.0,78.0,60.0,61.0,55.6,51.0,91,50,28,0.00,40.00,0,-999,0,0.00
2013-9-20,92.0,74.7,60.0,59.0,55.5,50.0,71,53,26,0.00,40.00,0,-999,0,0.01
2013-9-21,90.0,77.8,56.0,59.0,32.9,-99.9,90,42,15,0.00,40.00,0,-999,0,0.00
2013-9-22,89.0,77.1,60.0,59.0,51.8,46.0,76,44,25,0.00,40.00,0,-999,0,0.00
2013-9-23,89.0,77.1,48.0,46.0,39.1,32.0,79,30,14,0.00,40.00,0,-999,0,0.00
2013-9-24,92.0,80.3,48.0,46.0,36.7,32.0,79,24,13,0.00,40.00,0,-999,0,0.00
2013-9-25,91.0,82.6,62.0,38.0,32.2,29.0,40,17,12,0.00,40.00,0,-999,0,0.00
2013-9-26,87.0,78.9,63.0,50.0,37.3,31.0,45,24,14,0.00,40.00,0,-999,0,0.00
2013-10-8,85.0,78.9,63.0,29.0,27.1,25.0,23,15,13,0.00,40.00,0,-999,0,0.00
2013-10-9,81.0,72.5,60.0,44.0,34.1,27.0,39,26,13,0.00,40.00,0,-999,0,0.00
2013-10-10,72.0,64.2,50.0,46.0,39.0,33.0,64,40,23,0.00,40.00,0,-999,0,0.00
2013-10-11,77.0,70.1,57.0,40.0,33.8,28.0,53,28,16,0.00,40.00,0,-999,0,0.00
2013-10-12,84.0,73.4,36.0,34.0,28.0,21.0,77,21,11,0.00,40.00,0,-999,0,0.00
2013-10-13,85.0,76.6,57.0,41.0,36.1,31.0,54,25,14,0.00,40.00,0,-999,0,0.00
2013-10-27,84.0,73.6,48.0,31.0,24.3,18.0,40,17,10,0.00,40.00,0,-999,0,0.00
2013-10-28,75.0,69.2,57.0,30.0,22.6,18.0,30,17,11,0.00,40.00,0,-999,0,0.00
2013-10-29,77.0,66.8,53.0,36.0,23.9,-99.9,52,24,13,0.00,40.00,0,-999,0,0.00
2013-10-30,72.0,61.0,46.0,40.0,33.0,27.0,64,37,21,0.00,40.00,0,-999,0,0.00
2013-10-31,71.0,62.5,25.0,28.0,18.4,5.0,81,22,9,0.00,40.00,0,-999,0,0.00
2013-11-1,76.0,63.4,26.0,16.0,14.4,9.0,48,17,9,0.00,40.00,0,-999,0,0.00
2013-11-2,81.0,73.4,40.0,16.0,14.1,10.0,34,11,7,0.00,40.00,0,-999,0,0.00
2013-11-3,78.0,64.1,49.0,50.0,41.8,36.0,76,47,24,0.00,40.00,0,-999,0,0.01
2013-11-4,76.0,64.5,39.0,44.0,37.1,32.0,82,39,20,0.00,40.00,0,-999,0,0.00
2013-11-5,71.0,58.5,45.0,42.0,34.9,30.0,69,43,21,0.00,40.00,0,-999,0,0.00
2013-11-6,71.0,62.2,36.0,33.0,23.9,17.0,71,27,14,0.00,40.00,0,-999,0,0.00
2013-11-7,76.0,65.5,35.0,26.0,22.0,15.0,43,20,13,0.00,40.00,0,-999,0,0.00
2013-11-8,78.0,69.4,44.0,34.0,29.9,26.0,48,24,17,0.00,40.00,0,-999,0,0.00
2013-11-9,78.0,64.6,34.0,35.0,30.3,25.0,68,32,17,0.00,40.00,0,-999,0,0.00
2013-11-10,82.0,68.4,34.0,32.0,29.3,25.0,69,27,13,0.00,40.00,0,-999,0,0.00
2013-11-11,83.0,71.1,45.0,36.0,31.9,29.0,51,25,15,0.00,40.00,0,-999,0,0.00
2013-11-12,78.0,67.4,47.0,42.0,39.6,30.0,51,37,28,0.00,40.00,0,-999,0,0.00
2013-11-13,72.0,59.3,45.0,41.0,38.8,36.0,69,48,30,0.00,40.00,0,-999,0,0.00
2013-11-14,78.0,65.2,44.0,39.0,32.8,23.0,66,33,13,0.00,40.00,0,-999,0,0.00
2013-11-15,70.0,63.0,44.0,47.0,40.3,26.0,63,44,32,0.00,40.00,0,-999,0,0.00
2013-11-16,74.0,62.2,50.0,44.0,37.3,26.0,66,42,16,0.00,40.00,0,-999,0,0.00
2013-11-17,73.0,64.6,40.0,43.0,36.2,33.0,77,37,25,0.00,40.00,0,-999,0,0.00
2013-11-18,76.0,63.4,46.0,45.0,34.9,26.0,67,37,20,0.00,40.00,0,-999,0,0.00
2013-11-19,79.0,62.6,34.0,38.0,27.0,20.0,76,30,11,0.00,40.00,0,-999,0,0.00
2013-11-20,77.0,65.0,46.0,35.0,26.6,20.0,46,25,12,0.00,40.00,0,-999,0,0.00
2013-11-21,70.0,64.4,50.0,44.0,40.8,28.0,54,43,30,0.00,40.00,0,-999,0,0.00
2013-11-22,65.0,58.7,51.0,52.0,46.0,38.0,90,63,46,0.00,40.00,0,-999,0,0.11
2013-11-23,52.0,47.0,44.0,44.0,39.5,37.0,90,76,61,0.00,40.00,0,-999,0,0.31
2013-11-24,55.0,44.0,33.0,38.0,35.4,29.0,86,73,50,0.00,40.00,0,-999,0,0.00
2013-11-25,56.0,45.6,25.0,35.0,31.4,23.0,93,61,40,0.00,40.00,0,-999,0,0.00
2013-11-26,59.0,51.1,30.0,34.0,23.4,17.0,88,36,23,0.00,40.00,0,-999,0,0.00
2013-11-27,58.0,47.9,35.0,22.0,18.7,16.0,56,32,21,0.00,40.00,0,-999,0,0.00
2013-11-28,69.0,56.6,29.0,31.0,27.8,24.0,81,36,21,0.00,40.00,0,-999,0,0.00
2013-11-29,74.0,62.1,35.0,37.0,34.3,30.0,81,39,22,0.00,40.00,0,-999,0,0.00
2013-11-30,74.0,54.9,37.0,39.0,19.2,-99.9,84,49,16,0.00,40.00,0,-999,0,0.00
2013-12-1,67.0,53.6,42.0,38.0,34.7,32.0,74,51,29,0.00,40.00,0,-999,0,0.00
2013-12-2,72.0,60.0,29.0,36.0,25.0,12.0,92,36,12,0.00,40.00,0,-999,0,0.00
2013-12-3,73.0,62.6,35.0,39.0,27.7,10.0,60,31,9,0.00,40.00,0,-999,0,0.00
2013-12-4,68.0,57.5,49.0,42.0,27.4,-99.9,63,43,14,0.00,40.00,0,-999,0,0.00
2013-12-5,51.0,41.8,31.0,40.0,36.1,30.0,94,80,53,0.00,40.00,0,-999,0,0.27
2013-12-6,51.0,37.8,19.0,29.0,24.9,17.0,95,65,29,0.00,40.00,0,-999,0,0.00
2013-12-7,61.0,40.8,18.0,29.0,9.0,-99.9,94,49,11,0.00,40.00,0,-999,0,0.00
2013-12-13,60.0,54.1,41.0,31.0,27.6,25.0,66,37,28,0.00,40.00,0,-999,0,0.00
2013-12-14,62.0,53.1,36.0,28.0,17.1,-99.9,67,30,15,0.00,40.00,0,-999,0,0.00
2013-12-15,67.0,58.1,37.0,22.0,16.4,13.0,53,21,12,0.00,40.00,0,-999,0,0.00
2013-12-16,74.0,59.5,25.0,20.0,4.2,-99.9,67,23,8,0.00,40.00,0,-999,0,0.00
2013-12-17,77.0,60.8,25.0,21.0,17.1,14.0,67,24,9,0.00,40.00,0,-999,0,0.00
2013-12-18,69.0,61.7,43.0,21.0,18.0,16.0,40,19,13,0.00,40.00,0,-999,0,0.00
2013-12-19,67.0,59.1,49.0,24.0,7.7,-99.9,33,18,11,0.00,40.00,0,-999,0,0.00
2013-12-20,51.0,44.1,38.0,40.0,32.0,19.0,91,65,28,0.00,40.00,0,-999,0,0.24
2013-12-21,47.0,42.5,39.0,36.0,32.6,29.0,78,68,49,0.00,40.00,0,-999,0,0.00
2013-12-22,54.0,45.3,27.0,36.0,28.3,20.0,95,55,27,0.00,40.00,0,-999,0,0.00
2013-12-23,61.0,47.5,19.0,30.0,17.7,-99.9,93,41,16,0.00,40.00,0,-999,0,0.00
2013-12-24,66.0,55.6,34.0,25.0,21.6,19.0,63,29,16,0.00,40.00,0,-999,0,0.00
2013-12-25,63.0,47.5,22.0,27.0,22.1,18.0,86,40,20,0.00,40.00,0,-999,0,0.00
2013-12-26,60.0,51.1,33.0,24.0,20.2,15.0,64,32,17,0.00,40.00,0,-999,0,0.00
2013-12-27,62.0,53.2,19.0,23.0,18.9,13.0,85,29,16,0.00,40.00,0,-999,0,0.00
2013-12-28,62.0,56.6,37.0,24.0,21.2,19.0,48,26,19,0.00,40.00,0,-999,0,0.00
2013-12-29,63.0,50.5,31.0,24.0,18.7,13.0,67,32,15,0.00,40.00,0,-999,0,0.00
2013-12-30,64.0,55.9,36.0,22.0,17.7,14.0,53,24,14,0.00,40.00,0,-999,0,0.00
2013-12-31,67.0,57.7,35.0,18.0,15.2,12.0,48,21,12,0.00,40.00,0,-999,0,0.00